Time,TemperatureF,DewpointF,PressureIn,WindDirection,WindDirectionDegrees,WindSpeedMPH,WindSpeedGustMPH,Humidity,HourlyPrecipIn,Conditions,Clouds,dailyrainin,SoftwareType,DateUTC
2013-01-23 00:01:00,41.8,32.8,30.29,NW,315,0.0,0.0,70,0.00,,,0.00,WUHU216HW,2013-01-23 05:01:00,
2013-01-23 00:03:00,41.6,32.6,30.29,NNW,338,0.0,0.0,70,0.00,,,0.00,WUHU216HW,2013-01-23 05:03:00,
2013-01-23 00:08:00,41.2,32.6,30.29,NW,315,0.0,0.0,71,0.00,,,0.00,WUHU216HW,2013-01-23 05:08:00,
2013-01-23 00:13:00,41.2,32.6,30.30,NNW,338,0.0,0.0,71,0.00,,,0.00,WUHU216HW,2013-01-23 05:13:00,
2013-01-23 00:18:00,41.2,32.6,30.29,North,0,0.0,0.0,71,0.00,,,0.00,WUHU216HW,2013-01-23 05:18:00,
2013-01-23 00:23:00,41.4,32.8,30.29,WNW,293,0.0,0.0,71,0.00,,,0.00,WUHU216HW,2013-01-23 05:23:00,
2013-01-23 00:28:00,41.2,32.6,30.29,NW,315,0.0,0.0,71,0.00,,,0.00,WUHU216HW,2013-01-23 05:28:00,
2013-01-23 00:33:00,41.0,32.4,30.29,NNW,338,0.0,0.0,71,0.00,,,0.00,WUHU216HW,2013-01-23 05:33:00,
2013-01-23 00:38:00,40.9,32.2,30.29,WNW,293,0.0,0.0,71,0.00,,,0.00,WUHU216HW,2013-01-23 05:38:00,
2013-01-23 00:43:00,40.9,32.2,30.29,NNW,338,0.0,0.2,71,0.00,,,0.00,WUHU216HW,2013-01-23 05:43:00,
2013-01-23 00:48:00,40.7,31.7,30.29,NNW,338,0.0,0.2,70,0.00,,,0.00,WUHU216HW,2013-01-23 05:48:00,
2013-01-23 00:53:00,40.7,31.7,30.29,NNW,338,0.0,0.2,70,0.00,,,0.00,WUHU216HW,2013-01-23 05:53:00,
2013-01-23 00:58:00,40.7,31.7,30.29,NNW,338,0.0,0.2,70,0.00,,,0.00,WUHU216HW,2013-01-23 05:58:00,
2013-01-23 01:03:00,40.9,31.5,30.29,NNW,338,0.0,0.2,69,0.00,,,0.00,WUHU216HW,2013-01-23 06:03:00,
2013-01-23 01:08:00,41.0,31.3,30.29,NW,315,0.0,0.2,68,0.00,,,0.00,WUHU216HW,2013-01-23 06:08:00,
2013-01-23 01:13:00,41.2,31.5,30.29,NNW,338,0.0,0.2,68,0.00,,,0.00,WUHU216HW,2013-01-23 06:13:00,
2013-01-23 01:18:00,41.4,31.2,30.29,West,270,0.2,0.4,67,0.00,,,0.00,WUHU216HW,2013-01-23 06:18:00,
2013-01-23 01:23:00,41.4,31.2,30.29,NW,315,0.0,0.4,67,0.00,,,0.00,WUHU216HW,2013-01-23 06:23:00,
2013-01-23 01:28:00,41.4,31.2,30.29,NNW,338,0.0,0.2,67,0.00,,,0.00,WUHU216HW,2013-01-23 06:28:00,
2013-01-23 01:33:00,41.0,30.9,30.29,NNW,338,0.0,0.2,67,0.00,,,0.00,WUHU216HW,2013-01-23 06:33:00,
2013-01-23 01:38:00,40.7,30.5,30.29,NW,315,0.0,0.2,67,0.00,,,0.00,WUHU216HW,2013-01-23 06:38:00,
2013-01-23 01:43:00,40.7,30.5,30.30,NW,315,0.0,0.0,67,0.00,,,0.00,WUHU216HW,2013-01-23 06:43:00,
2013-01-23 01:48:00,40.5,30.3,30.30,NW,315,0.0,0.0,67,0.00,,,0.00,WUHU216HW,2013-01-23 06:48:00,
2013-01-23 01:53:00,40.1,30.0,30.30,NW,315,0.0,0.0,67,0.00,,,0.00,WUHU216HW,2013-01-23 06:53:00,
2013-01-23 01:58:00,40.1,30.0,30.30,NW,315,0.0,0.0,67,0.00,,,0.00,WUHU216HW,2013-01-23 06:58:00,
2013-01-23 02:03:00,40.1,30.0,30.30,NW,315,0.0,0.0,67,0.00,,,0.00,WUHU216HW,2013-01-23 07:03:00,
2013-01-23 02:08:00,40.3,30.2,30.30,West,270,0.0,0.0,67,0.00,,,0.00,WUHU216HW,2013-01-23 07:08:00,
2013-01-23 02:13:00,40.3,30.2,30.30,WNW,293,0.0,0.4,67,0.00,,,0.00,WUHU216HW,2013-01-23 07:13:00,
2013-01-23 02:18:00,40.0,29.8,30.30,NW,315,0.0,0.4,67,0.00,,,0.00,WUHU216HW,2013-01-23 07:18:00,
2013-01-23 02:23:00,40.0,29.8,30.30,NW,315,0.0,0.2,67,0.00,,,0.00,WUHU216HW,2013-01-23 07:23:00,
2013-01-23 02:28:00,39.8,29.6,30.30,WNW,293,0.0,0.2,67,0.00,,,0.00,WUHU216HW,2013-01-23 07:28:00,
2013-01-23 02:33:00,39.6,29.4,30.30,NNW,338,0.0,0.4,67,0.00,,,0.00,WUHU216HW,2013-01-23 07:33:00,
2013-01-23 02:38:00,39.6,29.4,30.30,NNW,338,0.0,0.4,67,0.00,,,0.00,WUHU216HW,2013-01-23 07:38:00,
2013-01-23 02:43:00,39.4,29.7,30.30,West,270,0.4,0.4,68,0.00,,,0.00,WUHU216HW,2013-01-23 07:43:00,
2013-01-23 02:48:00,39.6,29.9,30.30,West,270,0.0,0.4,68,0.00,,,0.00,WUHU216HW,2013-01-23 07:48:00,
2013-01-23 02:53:00,39.6,29.4,30.30,West,270,0.0,0.4,67,0.00,,,0.00,WUHU216HW,2013-01-23 07:53:00,
2013-01-23 02:58:00,39.4,29.3,30.30,West,270,0.0,0.0,67,0.00,,,0.00,WUHU216HW,2013-01-23 07:58:00,
2013-01-23 03:03:00,39.1,29.4,30.30,NW,315,0.0,0.0,68,0.00,,,0.00,WUHU216HW,2013-01-23 08:03:00,
2013-01-23 03:08:00,38.9,29.2,30.30,NNW,338,0.0,0.0,68,0.00,,,0.00,WUHU216HW,2013-01-23 08:08:00,
2013-01-23 03:13:00,38.7,29.0,30.30,NNW,338,0.0,0.0,68,0.00,,,0.00,WUHU216HW,2013-01-23 08:13:00,
2013-01-23 03:18:00,38.7,29.3,30.30,NNW,338,0.0,0.0,69,0.00,,,0.00,WUHU216HW,2013-01-23 08:18:00,
2013-01-23 03:23:00,38.7,29.3,30.30,NNW,338,0.0,0.0,69,0.00,,,0.00,WUHU216HW,2013-01-23 08:23:00,
2013-01-23 03:28:00,38.7,29.3,30.30,NNW,338,0.0,0.0,69,0.00,,,0.00,WUHU216HW,2013-01-23 08:28:00,
2013-01-23 03:33:00,38.5,29.3,30.30,NNW,338,0.0,0.0,69,0.00,,,0.00,WUHU216HW,2013-01-23 08:33:00,
2013-01-23 03:38:00,38.7,29.8,30.30,NNW,338,0.0,0.0,70,0.00,,,0.00,WUHU216HW,2013-01-23 08:38:00,
2013-01-23 03:43:00,38.9,29.9,30.30,NW,315,0.0,0.0,70,0.00,,,0.00,WUHU216HW,2013-01-23 08:43:00,
2013-01-23 03:48:00,38.9,29.9,30.30,NW,315,0.0,0.0,70,0.00,,,0.00,WUHU216HW,2013-01-23 08:48:00,
2013-01-23 03:53:00,38.9,29.9,30.30,NW,315,0.0,0.0,70,0.00,,,0.00,WUHU216HW,2013-01-23 08:53:00,
2013-01-23 03:58:00,38.7,29.8,30.30,NW,315,0.0,0.0,70,0.00,,,0.00,WUHU216HW,2013-01-23 08:58:00,
2013-01-23 04:03:00,38.9,29.9,30.30,NW,315,0.0,0.0,70,0.00,,,0.00,WUHU216HW,2013-01-23 09:03:00,
2013-01-23 04:08:00,38.7,29.8,30.31,North,0,0.0,0.0,70,0.00,,,0.00,WUHU216HW,2013-01-23 09:08:00,
2013-01-23 04:13:00,38.5,30.0,30.30,North,0,0.0,0.0,71,0.00,,,0.00,WUHU216HW,2013-01-23 09:13:00,
2013-01-23 04:18:00,38.5,30.0,30.31,North,0,0.0,0.0,71,0.00,,,0.00,WUHU216HW,2013-01-23 09:18:00,
2013-01-23 04:23:00,38.5,30.0,30.31,SE,135,0.0,0.0,71,0.00,,,0.00,WUHU216HW,2013-01-23 09:23:00,
2013-01-23 04:28:00,38.5,30.0,30.31,SE,135,0.0,0.0,71,0.00,,,0.00,WUHU216HW,2013-01-23 09:28:00,
2013-01-23 04:33:00,38.5,30.0,30.31,SE,135,0.0,0.0,71,0.00,,,0.00,WUHU216HW,2013-01-23 09:33:00,
2013-01-23 04:38:00,38.3,29.8,30.30,SE,135,0.0,0.0,71,0.00,,,0.00,WUHU216HW,2013-01-23 09:38:00,
2013-01-23 04:43:00,38.3,30.1,30.30,SE,135,0.0,0.0,72,0.00,,,0.00,WUHU216HW,2013-01-23 09:43:00,
2013-01-23 04:48:00,38.3,30.1,30.30,SE,135,0.0,0.0,72,0.00,,,0.00,WUHU216HW,2013-01-23 09:48:00,
2013-01-23 04:53:00,38.2,30.0,30.30,NW,315,0.0,0.0,72,0.00,,,0.00,WUHU216HW,2013-01-23 09:53:00,
2013-01-23 04:58:00,38.2,30.0,30.30,NNW,338,0.0,0.0,72,0.00,,,0.00,WUHU216HW,2013-01-23 09:58:00,
2013-01-23 05:03:00,37.8,29.6,30.31,NNW,338,0.0,0.0,72,0.00,,,0.00,WUHU216HW,2013-01-23 10:03:00,
2013-01-23 05:08:00,37.6,29.8,30.31,NNW,338,0.0,0.0,73,0.00,,,0.00,WUHU216HW,2013-01-23 10:08:00,
2013-01-23 05:13:00,37.6,29.8,30.30,WNW,293,0.0,0.0,73,0.00,,,0.00,WUHU216HW,2013-01-23 10:13:00,
2013-01-23 05:18:00,37.6,29.8,30.31,WNW,293,0.0,0.0,73,0.00,,,0.00,WUHU216HW,2013-01-23 10:18:00,
2013-01-23 05:23:00,37.6,29.8,30.31,WNW,293,0.0,0.0,73,0.00,,,0.00,WUHU216HW,2013-01-23 10:23:00,
2013-01-23 05:28:00,37.4,29.6,30.31,NNW,338,0.0,0.0,73,0.00,,,0.00,WUHU216HW,2013-01-23 10:28:00,
2013-01-23 05:33:00,37.1,29.3,30.31,NNW,338,0.0,0.0,73,0.00,,,0.00,WUHU216HW,2013-01-23 10:33:00,
2013-01-23 05:38:00,37.1,29.5,30.31,NW,315,0.0,0.0,74,0.00,,,0.00,WUHU216HW,2013-01-23 10:38:00,
2013-01-23 05:43:00,37.1,29.5,30.31,NW,315,0.0,0.0,74,0.00,,,0.00,WUHU216HW,2013-01-23 10:43:00,
2013-01-23 05:48:00,37.1,29.5,30.31,NW,315,0.0,0.0,74,0.00,,,0.00,WUHU216HW,2013-01-23 10:48:00,
2013-01-23 05:53:00,37.3,29.7,30.32,NW,315,0.0,0.0,74,0.00,,,0.00,WUHU216HW,2013-01-23 10:53:00,
2013-01-23 05:58:00,37.3,29.7,30.32,NW,315,0.0,0.0,74,0.00,,,0.00,WUHU216HW,2013-01-23 10:58:00,
2013-01-23 06:03:00,37.3,29.7,30.32,WNW,293,0.0,0.0,74,0.00,,,0.00,WUHU216HW,2013-01-23 11:03:00,
2013-01-23 06:08:00,37.3,29.7,30.32,WNW,293,0.0,0.0,74,0.00,,,0.00,WUHU216HW,2013-01-23 11:08:00,
2013-01-23 06:13:00,37.3,29.7,30.32,WNW,293,0.0,0.0,74,0.00,,,0.00,WUHU216HW,2013-01-23 11:13:00,
2013-01-23 06:18:00,37.1,29.5,30.32,WNW,293,0.0,0.0,74,0.00,,,0.00,WUHU216HW,2013-01-23 11:18:00,
2013-01-23 06:23:00,37.1,29.5,30.32,WNW,293,0.0,0.0,74,0.00,,,0.00,WUHU216HW,2013-01-23 11:23:00,
2013-01-23 06:28:00,36.7,29.2,30.33,WNW,293,0.0,0.0,74,0.00,,,0.00,WUHU216HW,2013-01-23 11:28:00,
2013-01-23 06:33:00,36.7,29.2,30.33,WNW,293,0.0,0.0,74,0.00,,,0.00,WUHU216HW,2013-01-23 11:33:00,
2013-01-23 06:38:00,36.7,29.2,30.33,WNW,293,0.0,0.0,74,0.00,,,0.00,WUHU216HW,2013-01-23 11:38:00,
2013-01-23 06:43:00,36.7,29.2,30.33,WNW,293,0.0,0.0,74,0.00,,,0.00,WUHU216HW,2013-01-23 11:43:00,
2013-01-23 06:48:00,36.5,29.3,30.34,NW,315,0.0,0.0,75,0.00,,,0.00,WUHU216HW,2013-01-23 11:48:00,
2013-01-23 06:53:00,36.2,28.6,30.34,NW,315,0.0,0.0,74,0.00,,,0.00,WUHU216HW,2013-01-23 11:53:00,
2013-01-23 06:58:00,36.0,28.4,30.34,NW,315,0.0,0.0,74,0.00,,,0.00,WUHU216HW,2013-01-23 11:58:00,
2013-01-23 07:03:00,36.0,28.4,30.34,NW,315,0.0,0.0,74,0.00,,,0.00,WUHU216HW,2013-01-23 12:03:00,
2013-01-23 07:08:00,35.8,28.3,30.35,North,0,0.0,0.0,74,0.00,,,0.00,WUHU216HW,2013-01-23 12:08:00,
2013-01-23 07:13:00,35.6,28.4,30.35,NW,315,0.0,0.0,75,0.00,,,0.00,WUHU216HW,2013-01-23 12:13:00,
2013-01-23 07:18:00,35.6,28.4,30.35,WNW,293,0.0,0.0,75,0.00,,,0.00,WUHU216HW,2013-01-23 12:18:00,
2013-01-23 07:23:00,35.6,28.4,30.35,NW,315,0.0,0.0,75,0.00,,,0.00,WUHU216HW,2013-01-23 12:23:00,
2013-01-23 07:28:00,35.6,28.4,30.35,NW,315,0.0,0.0,75,0.00,,,0.00,WUHU216HW,2013-01-23 12:28:00,
2013-01-23 07:33:00,35.6,28.4,30.35,WNW,293,0.0,0.2,75,0.00,,,0.00,WUHU216HW,2013-01-23 12:33:00,
2013-01-23 07:38:00,35.8,28.6,30.35,West,270,0.0,0.2,75,0.00,,,0.00,WUHU216HW,2013-01-23 12:38:00,
2013-01-23 07:43:00,35.8,28.6,30.36,West,270,0.0,0.0,75,0.00,,,0.00,WUHU216HW,2013-01-23 12:43:00,
2013-01-23 07:48:00,36.2,29.0,30.36,West,270,0.0,0.0,75,0.00,,,0.00,WUHU216HW,2013-01-23 12:48:00,
2013-01-23 07:53:00,37.1,30.5,30.36,WNW,293,0.0,0.0,77,0.00,,,0.00,WUHU216HW,2013-01-23 12:53:00,
2013-01-23 07:58:00,38.7,32.1,30.36,WNW,293,0.0,0.0,77,0.00,,,0.00,WUHU216HW,2013-01-23 12:58:00,
2013-01-23 08:03:00,40.0,33.3,30.36,WNW,293,0.0,0.0,77,0.00,,,0.00,WUHU216HW,2013-01-23 13:03:00,
2013-01-23 08:08:00,40.5,33.5,30.36,WNW,293,0.0,0.0,76,0.00,,,0.00,WUHU216HW,2013-01-23 13:08:00,
2013-01-23 08:13:00,40.7,33.3,30.36,NNW,338,0.4,0.4,75,0.00,,,0.00,WUHU216HW,2013-01-23 13:13:00,
2013-01-23 08:18:00,40.9,33.5,30.36,NNW,338,0.0,0.4,75,0.00,,,0.00,WUHU216HW,2013-01-23 13:18:00,
2013-01-23 08:23:00,41.0,33.3,30.36,NNW,338,1.3,2.0,74,0.00,,,0.00,WUHU216HW,2013-01-23 13:23:00,
2013-01-23 08:28:00,41.2,33.2,30.36,NW,315,0.2,2.0,73,0.00,,,0.00,WUHU216HW,2013-01-23 13:28:00,
2013-01-23 08:33:00,41.4,33.4,30.37,NNW,338,0.9,1.3,73,0.00,,,0.00,WUHU216HW,2013-01-23 13:33:00,
2013-01-23 08:38:00,41.8,33.4,30.37,NW,315,0.2,1.1,72,0.00,,,0.00,WUHU216HW,2013-01-23 13:38:00,
2013-01-23 08:43:00,42.1,33.5,30.37,North,0,0.0,0.4,71,0.00,,,0.00,WUHU216HW,2013-01-23 13:43:00,
2013-01-23 08:48:00,42.5,33.9,30.38,NW,315,0.4,1.1,71,0.00,,,0.00,WUHU216HW,2013-01-23 13:48:00,
2013-01-23 08:53:00,42.8,34.2,30.38,NNW,338,0.0,1.1,71,0.00,,,0.00,WUHU216HW,2013-01-23 13:53:00,
2013-01-23 08:58:00,43.2,34.5,30.38,NW,315,0.2,0.9,71,0.00,,,0.00,WUHU216HW,2013-01-23 13:58:00,
2013-01-23 09:03:00,43.6,34.8,30.38,NNW,338,0.4,1.1,71,0.00,,,0.00,WUHU216HW,2013-01-23 14:03:00,
2013-01-23 09:08:00,44.1,35.0,30.39,NW,315,0.0,1.1,70,0.00,,,0.00,WUHU216HW,2013-01-23 14:08:00,
2013-01-23 09:13:00,44.6,35.5,30.39,NNW,338,0.2,2.0,70,0.00,,,0.00,WUHU216HW,2013-01-23 14:13:00,
2013-01-23 09:18:00,45.4,35.4,30.39,ENE,68,0.4,2.0,68,0.00,,,0.00,WUHU216HW,2013-01-23 14:18:00,
2013-01-23 09:23:00,45.7,35.7,30.39,NNW,338,0.2,1.8,68,0.00,,,0.00,WUHU216HW,2013-01-23 14:23:00,
2013-01-23 09:28:00,46.3,35.5,30.39,WNW,293,0.4,1.8,66,0.00,,,0.00,WUHU216HW,2013-01-23 14:28:00,
2013-01-23 09:33:00,46.6,35.5,30.39,NNE,23,0.7,0.9,65,0.00,,,0.00,WUHU216HW,2013-01-23 14:33:00,
2013-01-23 09:38:00,47.2,34.8,30.39,North,0,0.4,0.9,62,0.00,,,0.00,WUHU216HW,2013-01-23 14:38:00,
2013-01-23 09:43:00,47.9,35.5,30.40,North,0,0.0,0.7,62,0.00,,,0.00,WUHU216HW,2013-01-23 14:43:00,
2013-01-23 09:48:00,48.4,35.3,30.40,NNE,23,0.0,1.1,60,0.00,,,0.00,WUHU216HW,2013-01-23 14:48:00,
2013-01-23 09:53:00,48.8,34.7,30.40,NW,315,0.2,1.1,58,0.00,,,0.00,WUHU216HW,2013-01-23 14:53:00,
2013-01-23 09:58:00,49.1,34.6,30.40,SE,135,0.0,1.1,57,0.00,,,0.00,WUHU216HW,2013-01-23 14:58:00,
2013-01-23 10:03:00,49.5,34.8,30.40,North,0,0.2,2.5,57,0.00,,,0.00,WUHU216HW,2013-01-23 15:03:00,
2013-01-23 10:08:00,49.9,35.2,30.40,NNW,338,0.7,4.0,57,0.00,,,0.00,WUHU216HW,2013-01-23 15:08:00,
2013-01-23 10:13:00,50.2,36.0,30.41,NNE,23,0.0,4.0,58,0.00,,,0.00,WUHU216HW,2013-01-23 15:13:00,
2013-01-23 10:18:00,50.6,34.5,30.41,NW,315,0.2,2.9,54,0.00,,,0.00,WUHU216HW,2013-01-23 15:18:00,
2013-01-23 10:23:00,50.9,33.9,30.41,ESE,113,0.4,1.1,52,0.00,,,0.00,WUHU216HW,2013-01-23 15:23:00,
2013-01-23 10:28:00,51.5,35.3,30.41,ENE,68,0.0,0.9,54,0.00,,,0.00,WUHU216HW,2013-01-23 15:28:00,
2013-01-23 10:33:00,51.7,35.0,30.41,NNE,23,0.4,1.6,53,0.00,,,0.00,WUHU216HW,2013-01-23 15:33:00,
2013-01-23 10:38:00,52.2,34.7,30.41,NNW,338,0.0,1.6,51,0.00,,,0.00,WUHU216HW,2013-01-23 15:38:00,
2013-01-23 10:43:00,52.4,33.8,30.41,NNW,338,0.4,3.6,49,0.00,,,0.00,WUHU216HW,2013-01-23 15:43:00,
2013-01-23 10:48:00,52.7,34.7,30.41,NW,315,0.2,3.6,50,0.00,,,0.00,WUHU216HW,2013-01-23 15:48:00,
2013-01-23 10:53:00,52.7,34.1,30.41,WNW,293,0.7,1.1,49,0.00,,,0.00,WUHU216HW,2013-01-23 15:53:00,
2013-01-23 10:58:00,52.9,34.3,30.41,South,180,0.9,1.1,49,0.00,,,0.00,WUHU216HW,2013-01-23 15:58:00,
2013-01-23 11:03:00,53.3,34.6,30.41,NNW,338,3.1,3.1,49,0.00,,,0.00,WUHU216HW,2013-01-23 16:03:00,
2013-01-23 11:08:00,53.6,34.9,30.41,NNW,338,0.2,3.1,49,0.00,,,0.00,WUHU216HW,2013-01-23 16:08:00,
2013-01-23 11:13:00,54.0,35.2,30.40,NW,315,0.4,3.1,49,0.00,,,0.00,WUHU216HW,2013-01-23 16:13:00,
2013-01-23 11:18:00,54.5,36.3,30.40,NE,45,1.6,1.6,50,0.00,,,0.00,WUHU216HW,2013-01-23 16:18:00,
2013-01-23 11:23:00,55.1,35.6,30.40,NNW,338,1.3,1.6,48,0.00,,,0.00,WUHU216HW,2013-01-23 16:23:00,
2013-01-23 11:29:00,55.3,35.8,30.40,NNE,23,0.4,1.6,48,0.00,,,0.00,WUHU216HW,2013-01-23 16:29:00,
2013-01-23 11:34:00,55.6,35.6,30.40,WNW,293,0.7,2.7,47,0.00,,,0.00,WUHU216HW,2013-01-23 16:34:00,
2013-01-23 11:39:00,56.2,35.0,30.39,West,270,0.7,3.4,45,0.00,,,0.00,WUHU216HW,2013-01-23 16:39:00,
2013-01-23 11:44:00,56.7,33.8,30.39,North,0,0.4,4.7,42,0.00,,,0.00,WUHU216HW,2013-01-23 16:44:00,
2013-01-23 11:49:00,57.1,35.3,30.39,NNW,338,0.4,4.7,44,0.00,,,0.00,WUHU216HW,2013-01-23 16:49:00,
2013-01-23 11:54:00,57.2,35.5,30.39,NE,45,0.4,3.1,44,0.00,,,0.00,WUHU216HW,2013-01-23 16:54:00,
2013-01-23 11:59:00,58.0,34.4,30.39,SW,225,0.4,3.1,41,0.00,,,0.00,WUHU216HW,2013-01-23 16:59:00,
2013-01-23 12:04:00,58.3,34.7,30.38,NNE,23,0.4,3.1,41,0.00,,,0.00,WUHU216HW,2013-01-23 17:04:00,
2013-01-23 12:09:00,58.5,34.3,30.38,NW,315,0.4,0.7,40,0.00,,,0.00,WUHU216HW,2013-01-23 17:09:00,
2013-01-23 12:14:00,58.9,33.8,30.38,East,90,0.2,0.7,39,0.00,,,0.00,WUHU216HW,2013-01-23 17:14:00,
2013-01-23 12:19:00,59.2,33.5,30.37,NNW,338,0.2,0.9,38,0.00,,,0.00,WUHU216HW,2013-01-23 17:19:00,
2013-01-23 12:24:00,59.0,33.3,30.37,ENE,68,0.4,0.9,38,0.00,,,0.00,WUHU216HW,2013-01-23 17:24:00,
2013-01-23 12:29:00,59.0,34.7,30.36,NW,315,0.4,0.9,40,0.00,,,0.00,WUHU216HW,2013-01-23 17:29:00,
2013-01-23 12:34:00,59.4,34.4,30.36,NW,315,0.7,4.9,39,0.00,,,0.00,WUHU216HW,2013-01-23 17:34:00,
2013-01-23 12:39:00,60.1,35.7,30.35,NW,315,0.4,4.9,40,0.00,,,0.00,WUHU216HW,2013-01-23 17:39:00,
2013-01-23 12:44:00,60.3,35.2,30.35,NNW,338,0.7,3.4,39,0.00,,,0.00,WUHU216HW,2013-01-23 17:44:00,
2013-01-23 12:49:00,60.7,36.2,30.35,North,0,1.1,3.4,40,0.00,,,0.00,WUHU216HW,2013-01-23 17:49:00,
2013-01-23 12:54:00,61.0,34.4,30.35,North,0,0.2,3.8,37,0.00,,,0.00,WUHU216HW,2013-01-23 17:54:00,
2013-01-23 12:59:00,60.5,34.6,30.34,WNW,293,0.2,3.8,38,0.00,,,0.00,WUHU216HW,2013-01-23 17:59:00,
2013-01-23 13:03:00,60.7,34.7,30.34,ENE,68,0.7,3.6,38,0.00,,,0.00,WUHU216HW,2013-01-23 18:03:00,
2013-01-23 13:08:00,61.2,36.0,30.33,ENE,68,0.4,0.9,39,0.00,,,0.00,WUHU216HW,2013-01-23 18:08:00,
2013-01-23 13:14:00,61.6,36.3,30.33,NW,315,1.6,2.5,39,0.00,,,0.00,WUHU216HW,2013-01-23 18:14:00,
2013-01-23 13:19:00,61.6,32.7,30.33,NNW,338,0.0,2.5,34,0.00,,,0.00,WUHU216HW,2013-01-23 18:19:00,
2013-01-23 13:23:00,61.0,35.1,30.32,NNW,338,0.4,1.6,38,0.00,,,0.00,WUHU216HW,2013-01-23 18:23:00,
2013-01-23 13:28:00,61.6,36.3,30.32,NW,315,0.2,3.6,39,0.00,,,0.00,WUHU216HW,2013-01-23 18:28:00,
2013-01-23 13:33:00,62.6,35.8,30.32,WNW,293,0.4,3.6,37,0.00,,,0.00,WUHU216HW,2013-01-23 18:33:00,
2013-01-23 13:39:00,63.0,34.0,30.31,North,0,0.2,3.1,34,0.00,,,0.00,WUHU216HW,2013-01-23 18:39:00,
2013-01-23 13:43:00,62.6,35.1,30.31,North,0,0.9,2.5,36,0.00,,,0.00,WUHU216HW,2013-01-23 18:43:00,
2013-01-23 13:48:00,62.5,35.6,30.31,WNW,293,0.7,3.6,37,0.00,,,0.00,WUHU216HW,2013-01-23 18:48:00,
2013-01-23 13:53:00,63.2,36.3,30.31,NNW,338,0.9,3.6,37,0.00,,,0.00,WUHU216HW,2013-01-23 18:53:00,
2013-01-23 13:58:00,63.7,37.5,30.30,NNW,338,2.2,4.0,38,0.00,,,0.00,WUHU216HW,2013-01-23 18:58:00,
2013-01-23 14:03:00,63.5,35.9,30.31,North,0,0.4,4.0,36,0.00,,,0.00,WUHU216HW,2013-01-23 19:03:00,
2013-01-23 14:08:00,63.2,35.6,30.30,NW,315,0.2,2.5,36,0.00,,,0.00,WUHU216HW,2013-01-23 19:08:00,
2013-01-23 14:14:00,63.2,34.8,30.30,NNW,338,0.9,4.0,35,0.00,,,0.00,WUHU216HW,2013-01-23 19:14:00,
2013-01-23 14:19:00,63.0,36.2,30.30,SSE,158,0.2,4.3,37,0.00,,,0.00,WUHU216HW,2013-01-23 19:19:00,
2013-01-23 14:23:00,63.4,36.5,30.30,West,270,5.4,5.4,37,0.00,,,0.00,WUHU216HW,2013-01-23 19:23:00,
2013-01-23 14:28:00,63.5,36.6,30.29,NW,315,0.4,5.4,37,0.00,,,0.00,WUHU216HW,2013-01-23 19:28:00,
2013-01-23 14:33:00,63.5,35.9,30.29,NNW,338,0.4,5.4,36,0.00,,,0.00,WUHU216HW,2013-01-23 19:33:00,
2013-01-23 14:38:00,63.2,36.3,30.29,NW,315,0.2,2.5,37,0.00,,,0.00,WUHU216HW,2013-01-23 19:38:00,
2013-01-23 14:43:00,63.5,35.9,30.29,WSW,248,0.9,2.5,36,0.00,,,0.00,WUHU216HW,2013-01-23 19:43:00,
2013-01-23 14:48:00,63.9,37.0,30.29,NW,315,0.7,3.1,37,0.00,,,0.00,WUHU216HW,2013-01-23 19:48:00,
2013-01-23 14:53:00,64.3,37.3,30.29,NW,315,0.4,3.1,37,0.00,,,0.00,WUHU216HW,2013-01-23 19:53:00,
2013-01-23 14:58:00,64.8,38.5,30.29,NW,315,2.7,6.3,38,0.00,,,0.00,WUHU216HW,2013-01-23 19:58:00,
2013-01-23 15:03:00,65.5,39.2,30.29,ESE,113,1.8,6.3,38,0.00,,,0.00,WUHU216HW,2013-01-23 20:03:00,
2013-01-23 15:08:00,65.7,37.9,30.29,SW,225,0.4,4.0,36,0.00,,,0.00,WUHU216HW,2013-01-23 20:08:00,
2013-01-23 15:13:00,65.7,38.6,30.29,WSW,248,0.9,3.8,37,0.00,,,0.00,WUHU216HW,2013-01-23 20:13:00,
2013-01-23 15:18:00,65.9,36.5,30.29,NNW,338,0.2,3.8,34,0.00,,,0.00,WUHU216HW,2013-01-23 20:18:00,
2013-01-23 15:23:00,65.2,35.9,30.29,NNW,338,1.1,2.2,34,0.00,,,0.00,WUHU216HW,2013-01-23 20:23:00,
2013-01-23 15:28:00,65.2,38.1,30.29,NW,315,0.4,2.2,37,0.00,,,0.00,WUHU216HW,2013-01-23 20:28:00,
2013-01-23 15:33:00,65.3,38.3,30.29,NW,315,1.8,2.2,37,0.00,,,0.00,WUHU216HW,2013-01-23 20:33:00,
2013-01-23 15:38:00,65.9,38.0,30.28,NNW,338,1.1,2.7,36,0.00,,,0.00,WUHU216HW,2013-01-23 20:38:00,
2013-01-23 15:43:00,65.3,37.5,30.29,South,180,0.7,4.0,36,0.00,,,0.00,WUHU216HW,2013-01-23 20:43:00,
2013-01-23 15:48:00,65.3,37.5,30.29,NNW,338,1.3,4.3,36,0.00,,,0.00,WUHU216HW,2013-01-23 20:48:00,
2013-01-23 15:53:00,64.8,37.8,30.29,WNW,293,1.8,4.3,37,0.00,,,0.00,WUHU216HW,2013-01-23 20:53:00,
2013-01-23 15:58:00,64.8,37.8,30.29,SE,135,0.4,3.8,37,0.00,,,0.00,WUHU216HW,2013-01-23 20:58:00,
2013-01-23 16:03:00,65.2,38.8,30.28,West,270,5.1,5.1,38,0.00,,,0.00,WUHU216HW,2013-01-23 21:03:00,
2013-01-23 16:08:00,65.3,39.0,30.28,South,180,2.5,5.1,38,0.00,,,0.00,WUHU216HW,2013-01-23 21:08:00,
2013-01-23 16:14:00,65.3,38.3,30.28,SSW,203,1.1,5.1,37,0.00,,,0.00,WUHU216HW,2013-01-23 21:14:00,
2013-01-23 16:19:00,65.2,38.1,30.28,WNW,293,3.1,4.0,37,0.00,,,0.00,WUHU216HW,2013-01-23 21:19:00,
2013-01-23 16:24:00,65.2,38.8,30.28,South,180,0.4,4.0,38,0.00,,,0.00,WUHU216HW,2013-01-23 21:24:00,
2013-01-23 16:28:00,65.0,39.3,30.28,WSW,248,3.8,4.0,39,0.00,,,0.00,WUHU216HW,2013-01-23 21:28:00,
2013-01-23 16:34:00,64.6,37.6,30.28,WNW,293,0.7,3.8,37,0.00,,,0.00,WUHU216HW,2013-01-23 21:34:00,
2013-01-23 16:38:00,64.3,38.7,30.27,West,270,0.4,3.8,39,0.00,,,0.00,WUHU216HW,2013-01-23 21:38:00,
2013-01-23 16:43:00,64.4,39.6,30.28,East,90,0.4,3.4,40,0.00,,,0.00,WUHU216HW,2013-01-23 21:43:00,
2013-01-23 16:48:00,64.4,38.9,30.28,WSW,248,0.4,3.6,39,0.00,,,0.00,WUHU216HW,2013-01-23 21:48:00,
2013-01-23 16:53:00,64.3,38.7,30.28,SSE,158,0.4,3.6,39,0.00,,,0.00,WUHU216HW,2013-01-23 21:53:00,
2013-01-23 16:58:00,63.9,39.2,30.28,SE,135,0.4,3.1,40,0.00,,,0.00,WUHU216HW,2013-01-23 21:58:00,
2013-01-23 17:03:00,63.7,38.3,30.28,WNW,293,0.2,3.1,39,0.00,,,0.00,WUHU216HW,2013-01-23 22:03:00,
2013-01-23 17:08:00,63.0,38.4,30.28,SSW,203,0.4,2.7,40,0.00,,,0.00,WUHU216HW,2013-01-23 22:08:00,
2013-01-23 17:14:00,62.8,38.7,30.28,West,270,0.4,2.7,41,0.00,,,0.00,WUHU216HW,2013-01-23 22:14:00,
2013-01-23 17:19:00,62.5,38.4,30.28,West,270,0.7,2.5,41,0.00,,,0.00,WUHU216HW,2013-01-23 22:19:00,
2013-01-23 17:24:00,62.1,38.1,30.28,NW,315,1.6,2.5,41,0.00,,,0.00,WUHU216HW,2013-01-23 22:24:00,
2013-01-23 17:29:00,61.6,38.2,30.28,ESE,113,0.0,4.0,42,0.00,,,0.00,WUHU216HW,2013-01-23 22:29:00,
2013-01-23 17:34:00,61.2,38.4,30.28,WNW,293,0.0,4.0,43,0.00,,,0.00,WUHU216HW,2013-01-23 22:34:00,
2013-01-23 17:39:00,61.0,38.8,30.28,West,270,0.0,0.7,44,0.00,,,0.00,WUHU216HW,2013-01-23 22:39:00,
2013-01-23 17:44:00,60.7,39.1,30.28,SE,135,0.0,0.7,45,0.00,,,0.00,WUHU216HW,2013-01-23 22:44:00,
2013-01-23 17:49:00,60.1,38.6,30.28,SE,135,0.0,0.4,45,0.00,,,0.00,WUHU216HW,2013-01-23 22:49:00,
2013-01-23 17:54:00,59.4,38.5,30.28,SE,135,0.0,0.4,46,0.00,,,0.00,WUHU216HW,2013-01-23 22:54:00,
2013-01-23 17:59:00,59.0,38.8,30.28,SE,135,0.0,0.2,47,0.00,,,0.00,WUHU216HW,2013-01-23 22:59:00,
2013-01-23 18:04:00,58.7,38.4,30.28,SE,135,0.0,0.0,47,0.00,,,0.00,WUHU216HW,2013-01-23 23:04:00,
2013-01-23 18:09:00,58.3,38.7,30.28,SE,135,0.0,0.0,48,0.00,,,0.00,WUHU216HW,2013-01-23 23:09:00,
2013-01-23 18:14:00,58.0,38.3,30.29,SE,135,0.0,0.0,48,0.00,,,0.00,WUHU216HW,2013-01-23 23:14:00,
2013-01-23 18:19:00,57.8,38.8,30.29,SE,135,0.0,0.0,49,0.00,,,0.00,WUHU216HW,2013-01-23 23:19:00,
2013-01-23 18:24:00,56.5,38.6,30.29,SE,135,0.0,0.0,51,0.00,,,0.00,WUHU216HW,2013-01-23 23:24:00,
2013-01-23 18:29:00,55.8,37.9,30.29,SE,135,0.0,0.0,51,0.00,,,0.00,WUHU216HW,2013-01-23 23:29:00,
2013-01-23 18:34:00,55.8,37.9,30.29,SE,135,0.0,0.0,51,0.00,,,0.00,WUHU216HW,2013-01-23 23:34:00,
2013-01-23 18:39:00,55.8,37.9,30.29,SE,135,0.0,0.0,51,0.00,,,0.00,WUHU216HW,2013-01-23 23:39:00,
2013-01-23 18:44:00,55.8,37.9,30.29,SE,135,0.0,0.0,51,0.00,,,0.00,WUHU216HW,2013-01-23 23:44:00,
2013-01-23 18:45:00,55.8,37.9,30.29,SE,135,0.0,0.0,51,0.00,,,0.00,WUHU216HW,2013-01-23 23:45:00,
2013-01-23 18:49:00,55.8,37.9,30.29,SE,135,0.0,0.0,51,0.00,,,0.00,WUHU216HW,2013-01-23 23:49:00,
2013-01-23 18:54:00,55.8,37.9,30.29,SE,135,0.0,0.0,51,0.00,,,0.00,WUHU216HW,2013-01-23 23:54:00,
2013-01-23 20:55:00,47.2,36.4,30.29,SE,135,0.0,0.0,66,0.00,,,0.00,WUHU216HW,2013-01-24 01:55:00,
2013-01-23 21:00:00,47.5,36.7,30.29,SE,135,0.0,0.0,66,0.00,,,0.00,WUHU216HW,2013-01-24 02:00:00,
2013-01-23 21:05:00,47.3,36.6,30.29,SE,135,0.0,0.0,66,0.00,,,0.00,WUHU216HW,2013-01-24 02:05:00,
2013-01-23 21:10:00,47.0,36.2,30.29,SE,135,0.0,0.0,66,0.00,,,0.00,WUHU216HW,2013-01-24 02:10:00,
2013-01-23 21:15:00,46.3,35.9,30.29,SE,135,0.0,0.0,67,0.00,,,0.00,WUHU216HW,2013-01-24 02:15:00,
2013-01-23 21:20:00,45.7,35.7,30.29,NW,315,0.0,0.0,68,0.00,,,0.00,WUHU216HW,2013-01-24 02:20:00,
2013-01-23 21:25:00,45.7,35.7,30.29,NW,315,0.0,0.0,68,0.00,,,0.00,WUHU216HW,2013-01-24 02:25:00,
2013-01-23 21:30:00,45.9,35.9,30.29,NW,315,0.0,0.0,68,0.00,,,0.00,WUHU216HW,2013-01-24 02:30:00,
2013-01-23 21:35:00,45.9,36.4,30.29,NW,315,0.0,0.0,69,0.00,,,0.00,WUHU216HW,2013-01-24 02:35:00,
2013-01-23 21:40:00,46.1,36.6,30.29,NW,315,0.0,0.0,69,0.00,,,0.00,WUHU216HW,2013-01-24 02:40:00,
2013-01-23 21:45:00,46.3,36.7,30.29,SW,225,0.0,0.0,69,0.00,,,0.00,WUHU216HW,2013-01-24 02:45:00,
2013-01-23 21:50:00,46.1,36.6,30.29,SW,225,0.0,0.0,69,0.00,,,0.00,WUHU216HW,2013-01-24 02:50:00,
2013-01-23 21:55:00,46.3,36.7,30.29,SW,225,0.0,0.0,69,0.00,,,0.00,WUHU216HW,2013-01-24 02:55:00,
2013-01-23 22:00:00,45.9,36.4,30.29,SW,225,0.0,0.0,69,0.00,,,0.00,WUHU216HW,2013-01-24 03:00:00,
2013-01-23 22:05:00,45.7,36.5,30.29,SW,225,0.0,0.0,70,0.00,,,0.00,WUHU216HW,2013-01-24 03:05:00,
2013-01-23 22:10:00,45.9,36.7,30.29,SW,225,0.0,0.0,70,0.00,,,0.00,WUHU216HW,2013-01-24 03:10:00,
2013-01-23 22:15:00,46.1,36.9,30.29,SW,225,0.0,0.0,70,0.00,,,0.00,WUHU216HW,2013-01-24 03:15:00,
2013-01-23 22:20:00,45.9,36.7,30.29,SSW,203,0.0,0.0,70,0.00,,,0.00,WUHU216HW,2013-01-24 03:20:00,
2013-01-23 22:25:00,45.9,36.7,30.29,SSW,203,0.0,0.0,70,0.00,,,0.00,WUHU216HW,2013-01-24 03:25:00,
2013-01-23 22:30:00,45.7,36.5,30.29,SSW,203,0.0,0.0,70,0.00,,,0.00,WUHU216HW,2013-01-24 03:30:00,
2013-01-23 22:35:00,45.7,36.5,30.29,SSW,203,0.0,0.0,70,0.00,,,0.00,WUHU216HW,2013-01-24 03:35:00,
2013-01-23 22:40:00,45.5,36.4,30.29,SSW,203,0.0,0.0,70,0.00,,,0.00,WUHU216HW,2013-01-24 03:40:00,
2013-01-23 22:45:00,45.4,36.6,30.29,SSW,203,0.0,0.0,71,0.00,,,0.00,WUHU216HW,2013-01-24 03:45:00,
2013-01-23 22:50:00,45.0,36.2,30.29,SSW,203,0.0,0.0,71,0.00,,,0.00,WUHU216HW,2013-01-24 03:50:00,
2013-01-23 22:55:00,45.0,36.2,30.29,SSW,203,0.0,0.0,71,0.00,,,0.00,WUHU216HW,2013-01-24 03:55:00,
2013-01-23 23:00:00,45.0,36.6,30.29,SSW,203,0.0,0.0,72,0.00,,,0.00,WUHU216HW,2013-01-24 04:00:00,
2013-01-23 23:05:00,44.8,36.4,30.29,SSW,203,0.0,0.0,72,0.00,,,0.00,WUHU216HW,2013-01-24 04:05:00,
2013-01-23 23:10:00,44.5,36.0,30.29,SSW,203,0.0,0.0,72,0.00,,,0.00,WUHU216HW,2013-01-24 04:10:00,
2013-01-23 23:15:00,44.3,35.8,30.29,SSW,203,0.0,0.0,72,0.00,,,0.00,WUHU216HW,2013-01-24 04:15:00,
2013-01-23 23:20:00,44.3,35.8,30.29,SSW,203,0.0,0.0,72,0.00,,,0.00,WUHU216HW,2013-01-24 04:20:00,
2013-01-23 23:25:00,44.1,35.6,30.29,SSW,203,0.0,0.0,72,0.00,,,0.00,WUHU216HW,2013-01-24 04:25:00,
2013-01-23 23:30:00,44.3,35.8,30.29,SSW,203,0.0,0.0,72,0.00,,,0.00,WUHU216HW,2013-01-24 04:30:00,
2013-01-23 23:35:00,44.3,35.8,30.28,SSW,203,0.0,0.0,72,0.00,,,0.00,WUHU216HW,2013-01-24 04:35:00,
2013-01-23 23:40:00,44.3,35.8,30.28,SSW,203,0.0,0.0,72,0.00,,,0.00,WUHU216HW,2013-01-24 04:40:00,
2013-01-23 23:45:00,44.3,35.8,30.28,SSW,203,0.0,0.0,72,0.00,,,0.00,WUHU216HW,2013-01-24 04:45:00,
2013-01-23 23:50:00,44.3,35.8,30.28,SSE,158,0.0,0.0,72,0.00,,,0.00,WUHU216HW,2013-01-24 04:50:00,
2013-01-23 23:55:00,44.3,36.2,30.27,SSE,158,0.0,0.0,73,0.00,,,0.00,WUHU216HW,2013-01-24 04:55:00,